Time;durP1;ratioP1;P1;durP2;ratioP2;P2;SDS_P1;SDS_P2;PMS_P1;PMS_P2;Temp;Humidity;BMP_temperature;BMP_pressure;BME280_temperature;BME280_humidity;BME280_pressure;Samples;Min_cycle;Max_cycle;Signal;HPM_P1;HPM_P2
2024/01/09 00:00:22;;;;;;;2.28;0.50;;;;;;;-5.43;53.53;103869.06;4954250;28;20513;-66
2024/01/09 00:02:48;;;;;;;4.90;0.40;;;;;;;-5.44;53.78;103878.34;4960140;28;20043;-66
2024/01/09 00:05:13;;;;;;;1.77;0.40;;;;;;;-5.42;53.59;103883.56;4939512;28;20523;-68
2024/01/09 00:07:39;;;;;;;1.95;0.43;;;;;;;-5.48;53.43;103883.09;4939519;28;20521;-67
2024/01/09 00:10:07;;;;;;;4.25;0.85;;;;;;;-5.23;53.21;103879.06;4944252;28;20653;-67
2024/01/09 00:12:33;;;;;;;3.42;0.98;;;;;;;-5.28;53.01;103882.94;4934914;28;20034;-66
2024/01/09 00:15:03;;;;;;;3.45;0.95;;;;;;;-5.24;53.07;103886.59;4943246;28;21009;-66
2024/01/09 00:17:28;;;;;;;7.10;0.70;;;;;;;-5.46;53.36;103889.22;4951543;28;20125;-67
2024/01/09 00:19:56;;;;;;;3.17;0.80;;;;;;;-5.41;53.35;103882.81;4957042;28;20035;-67
2024/01/09 00:22:26;;;;;;;1.55;0.82;;;;;;;-5.33;53.05;103879.16;4966122;28;20104;-67
2024/01/09 00:24:51;;;;;;;0.98;0.28;;;;;;;-5.37;53.00;103882.25;4958275;28;20472;-70
2024/01/09 00:27:17;;;;;;;5.32;0.98;;;;;;;-5.40;53.28;103874.38;4962239;28;20034;-70
2024/01/09 00:29:42;;;;;;;2.20;0.60;;;;;;;-5.45;53.20;103870.59;4955286;28;20833;-71
2024/01/09 00:32:08;;;;;;;2.30;0.68;;;;;;;-5.49;53.12;103869.47;4974217;28;20038;-68
2024/01/09 00:34:33;;;;;;;3.20;0.95;;;;;;;-5.46;53.38;103874.81;4953131;28;20118;-74
2024/01/09 00:36:59;;;;;;;4.50;1.02;;;;;;;-5.51;53.55;103872.69;4969075;28;20034;-71
2024/01/09 00:39:25;;;;;;;6.47;1.48;;;;;;;-5.49;53.40;103881.34;4955912;28;20038;-71
2024/01/09 00:41:50;;;;;;;3.08;0.52;;;;;;;-5.47;53.23;103874.69;4948668;28;20038;-71
2024/01/09 00:44:16;;;;;;;2.22;0.90;;;;;;;-5.49;52.97;103871.16;4990338;28;20043;-70
2024/01/09 00:46:41;;;;;;;5.80;0.70;;;;;;;-5.63;53.74;103881.19;4953331;28;20178;-69
2024/01/09 00:49:09;;;;;;;2.67;0.93;;;;;;;-5.68;53.87;103869.78;4958863;28;20066;-69
2024/01/09 00:51:35;;;;;;;4.05;0.95;;;;;;;-5.61;53.61;103881.31;4946484;28;20885;-71
2024/01/09 00:54:00;;;;;;;3.17;1.15;;;;;;;-5.53;53.50;103882.75;4975143;28;20113;-69
2024/01/09 00:56:27;;;;;;;3.50;0.82;;;;;;;-5.54;53.76;103868.25;4965293;28;20038;-71
2024/01/09 00:58:53;;;;;;;2.33;1.13;;;;;;;-5.57;53.66;103874.03;4947966;28;20034;-70
2024/01/09 01:01:18;;;;;;;6.35;1.05;;;;;;;-5.86;54.08;103876.91;4959318;28;20038;-70
2024/01/09 01:03:44;;;;;;;8.40;0.90;;;;;;;-5.63;53.39;103868.44;4960957;28;20041;-72
2024/01/09 01:06:09;;;;;;;6.78;0.60;;;;;;;-5.68;53.84;103866.31;4989451;28;20038;-72
2024/01/09 01:08:35;;;;;;;4.00;0.90;;;;;;;-5.65;53.73;103872.53;4951916;28;20065;-72
2024/01/09 01:11:01;;;;;;;2.47;0.93;;;;;;;-5.67;53.93;103871.53;4966464;28;20057;-72
2024/01/09 01:13:27;;;;;;;2.92;0.82;;;;;;;-5.69;53.75;103878.19;4964904;28;20105;-72
2024/01/09 01:15:53;;;;;;;3.97;0.63;;;;;;;-5.53;53.09;103876.78;4942283;28;20047;-72
2024/01/09 01:18:19;;;;;;;4.70;1.00;;;;;;;-5.79;53.53;103870.63;4957332;28;20042;-73
2024/01/09 01:20:44;;;;;;;3.63;0.77;;;;;;;-5.76;54.01;103870.84;4953660;28;20549;-73
2024/01/09 01:23:14;;;;;;;2.40;0.75;;;;;;;-5.81;53.67;103867.97;4974008;28;20051;-73
2024/01/09 01:25:40;;;;;;;1.83;0.90;;;;;;;-5.64;53.41;103871.78;4968269;28;20489;-73
2024/01/09 01:28:06;;;;;;;5.05;0.90;;;;;;;-5.73;54.04;103865.97;4958162;28;20572;-65
2024/01/09 01:30:31;;;;;;;2.88;1.08;;;;;;;-5.73;53.82;103871.06;4982008;28;20162;-73
2024/01/09 01:32:57;;;;;;;4.22;0.90;;;;;;;-5.84;54.06;103869.38;4973391;28;20027;-72
2024/01/09 01:35:22;;;;;;;2.22;0.80;;;;;;;-5.65;53.67;103869.13;4955718;28;20085;-66
2024/01/09 01:37:48;;;;;;;2.92;1.10;;;;;;;-5.64;53.47;103861.59;4954083;28;20042;-66
2024/01/09 01:40:14;;;;;;;3.22;0.65;;;;;;;-5.86;53.92;103863.28;4925564;28;20167;-68
2024/01/09 01:42:40;;;;;;;3.70;0.95;;;;;;;-5.78;54.12;103869.84;4930391;28;20543;-68
2024/01/09 01:45:14;;;;;;;3.53;0.70;;;;;;;-5.91;54.50;103870.56;4929300;28;20082;-68
2024/01/09 01:47:44;;;;;;;5.25;1.13;;;;;;;-5.71;53.63;103864.44;4935878;28;20034;-75
2024/01/09 01:50:13;;;;;;;5.00;0.90;;;;;;;-5.76;53.46;103865.75;4944802;28;20259;-76
2024/01/09 01:52:39;;;;;;;4.57;1.25;;;;;;;-5.82;53.81;103865.28;4959262;28;20053;-73
2024/01/09 01:55:05;;;;;;;3.13;1.02;;;;;;;-6.00;54.35;103865.66;4963203;28;20042;-73
2024/01/09 01:57:44;;;;;;;3.70;0.80;;;;;;;-5.87;54.13;103858.97;4972280;28;20100;-74
2024/01/09 02:00:15;;;;;;;7.63;1.92;;;;;;;-6.02;54.38;103871.41;4963851;28;20057;-74
2024/01/09 02:02:42;;;;;;;2.22;1.27;;;;;;;-6.08;54.44;103869.28;4960835;28;20984;-74
2024/01/09 02:05:08;;;;;;;2.95;1.13;;;;;;;-5.97;54.09;103871.00;4970050;28;20045;-74
2024/01/09 02:07:36;;;;;;;2.75;1.08;;;;;;;-5.87;53.75;103876.78;4961281;28;20035;-75
2024/01/09 02:10:03;;;;;;;3.70;1.55;;;;;;;-5.97;54.10;103876.09;4970598;28;20066;-74
2024/01/09 02:12:29;;;;;;;2.95;1.27;;;;;;;-5.91;53.61;103867.13;4954154;28;20046;-74
2024/01/09 02:14:54;;;;;;;3.80;1.05;;;;;;;-5.96;53.96;103865.13;4956383;28;20766;-74
2024/01/09 02:17:20;;;;;;;2.53;1.17;;;;;;;-6.05;54.28;103877.16;4962284;28;20052;-73
2024/01/09 02:19:45;;;;;;;3.58;1.45;;;;;;;-6.18;54.50;103869.34;4959006;28;20249;-68
2024/01/09 02:22:11;;;;;;;7.28;1.58;;;;;;;-6.13;54.67;103870.59;4991115;28;20035;-68
2024/01/09 02:24:36;;;;;;;6.85;1.30;;;;;;;-6.06;54.35;103869.38;4960531;28;20835;-65
2024/01/09 02:27:28;;;;;;;2.20;1.42;;;;;;;-6.11;54.50;103861.41;4958657;28;20041;-66
2024/01/09 02:29:54;;;;;;;3.63;1.10;;;;;;;-6.02;54.15;103872.31;4952521;28;20048;-73
2024/01/09 02:32:21;;;;;;;4.72;1.50;;;;;;;-6.08;54.02;103871.84;4960475;28;20533;-73
2024/01/09 02:34:48;;;;;;;4.63;1.15;;;;;;;-6.18;54.58;103869.34;4954451;28;20077;-71
2024/01/09 02:37:14;;;;;;;4.30;1.75;;;;;;;-6.09;54.27;103869.16;4961147;28;20054;-68
2024/01/09 02:39:39;;;;;;;4.47;1.15;;;;;;;-6.08;54.37;103870.97;4954677;28;20671;-67
2024/01/09 02:42:05;;;;;;;5.85;0.85;;;;;;;-6.10;54.32;103873.38;4961510;28;20061;-68
2024/01/09 02:44:30;;;;;;;2.55;1.40;;;;;;;-6.27;54.58;103869.50;4965575;28;20105;-69
2024/01/09 02:46:56;;;;;;;3.33;1.45;;;;;;;-6.26;54.71;103876.41;4969654;28;20038;-69
2024/01/09 02:49:22;;;;;;;5.95;1.35;;;;;;;-6.17;54.50;103871.13;4959061;28;20386;-69
2024/01/09 02:51:47;;;;;;;3.92;1.15;;;;;;;-6.12;54.47;103872.38;4954342;28;20035;-69
2024/01/09 02:54:13;;;;;;;4.88;1.40;;;;;;;-6.44;54.92;103867.34;4973522;28;20069;-70
2024/01/09 02:56:41;;;;;;;5.07;1.23;;;;;;;-6.29;54.59;103870.16;4959708;28;20074;-68
2024/01/09 02:59:07;;;;;;;5.78;1.08;;;;;;;-6.24;54.87;103873.94;4956930;28;20054;-69
2024/01/09 03:01:32;;;;;;;4.38;2.08;;;;;;;-6.21;54.71;103874.22;4932762;28;20034;-69
2024/01/09 03:03:58;;;;;;;2.33;1.33;;;;;;;-6.28;54.59;103874.50;4923798;28;20270;-69
2024/01/09 03:06:24;;;;;;;5.22;1.40;;;;;;;-6.38;55.21;103875.41;4948045;28;20023;-69
2024/01/09 03:08:53;;;;;;;3.88;1.02;;;;;;;-6.23;54.83;103873.19;4927706;28;20038;-68
2024/01/09 03:11:20;;;;;;;3.35;1.27;;;;;;;-6.49;55.09;103878.78;4933858;28;20220;-69
2024/01/09 03:13:46;;;;;;;4.90;1.38;;;;;;;-6.30;54.55;103876.03;4953822;28;20493;-70
2024/01/09 03:16:13;;;;;;;5.93;1.30;;;;;;;-6.29;54.58;103881.22;4963073;28;20066;-69
2024/01/09 03:18:39;;;;;;;5.47;1.48;;;;;;;-6.29;54.48;103885.44;4965300;28;20077;-73
2024/01/09 03:21:05;;;;;;;3.88;2.30;;;;;;;-6.36;54.84;103888.28;4961075;28;20101;-74
2024/01/09 03:23:33;;;;;;;4.60;2.05;;;;;;;-6.31;54.49;103882.75;4980662;28;20596;-72
2024/01/09 03:25:59;;;;;;;4.63;1.88;;;;;;;-6.51;55.23;103878.69;4950988;28;20129;-67
2024/01/09 03:28:28;;;;;;;2.63;1.45;;;;;;;-6.45;55.32;103886.78;4974847;28;20570;-69
2024/01/09 03:30:54;;;;;;;7.28;1.60;;;;;;;-6.39;54.79;103881.28;4952965;28;20488;-71
2024/01/09 03:33:19;;;;;;;5.18;1.65;;;;;;;-6.38;55.05;103886.47;4960449;28;20082;-68
2024/01/09 03:35:45;;;;;;;5.15;1.80;;;;;;;-6.34;54.75;103887.63;4964066;28;20035;-67
2024/01/09 03:38:11;;;;;;;4.50;2.05;;;;;;;-6.51;55.35;103888.88;4966928;28;20039;-68
2024/01/09 03:40:37;;;;;;;6.00;1.92;;;;;;;-6.36;54.59;103883.19;4973263;28;20093;-67
2024/01/09 03:43:03;;;;;;;3.38;1.38;;;;;;;-6.39;54.80;103881.28;4953203;28;20310;-65
2024/01/09 03:45:29;;;;;;;6.68;2.67;;;;;;;-6.46;54.90;103881.59;4959319;28;20478;-68
2024/01/09 03:47:55;;;;;;;3.00;1.70;;;;;;;-6.47;54.84;103877.25;4952735;28;20125;-67
2024/01/09 03:50:21;;;;;;;6.70;2.65;;;;;;;-6.49;54.82;103881.31;4958645;28;20640;-68
2024/01/09 03:52:46;;;;;;;6.30;2.00;;;;;;;-6.58;55.03;103876.41;4962276;28;20027;-71
2024/01/09 03:55:12;;;;;;;4.15;1.52;;;;;;;-6.51;54.91;103876.13;4960265;28;20042;-71
2024/01/09 03:57:38;;;;;;;4.20;1.40;;;;;;;-6.50;54.68;103880.44;4988402;28;20034;-68
2024/01/09 04:00:04;;;;;;;5.10;1.90;;;;;;;-6.72;55.31;103879.50;4952871;28;20042;-68
2024/01/09 04:02:30;;;;;;;8.70;2.28;;;;;;;-6.68;55.17;103876.47;4955841;28;20030;-68
2024/01/09 04:04:55;;;;;;;5.90;2.03;;;;;;;-6.66;55.37;103880.00;4953497;28;20077;-71
2024/01/09 04:07:21;;;;;;;4.90;1.95;;;;;;;-6.56;54.99;103885.03;4961736;28;20049;-73
2024/01/09 04:09:46;;;;;;;4.70;2.00;;;;;;;-6.48;54.93;103878.91;4957256;28;20050;-77
2024/01/09 04:12:12;;;;;;;3.58;1.83;;;;;;;-6.51;54.82;103877.78;4948714;28;20038;-68
2024/01/09 04:14:37;;;;;;;6.65;2.00;;;;;;;-6.57;55.10;103887.50;4969976;28;20070;-67
2024/01/09 04:17:03;;;;;;;5.60;2.75;;;;;;;-6.55;55.49;103881.75;4955902;28;20330;-66
2024/01/09 04:19:29;;;;;;;4.57;1.85;;;;;;;-6.51;55.10;103882.88;4957906;28;20038;-67
2024/01/09 04:21:54;;;;;;;6.07;2.00;;;;;;;-6.58;55.21;103878.94;4951592;28;20035;-64
2024/01/09 04:24:20;;;;;;;6.78;2.70;;;;;;;-6.58;54.92;103881.50;4962199;28;20050;-73
2024/01/09 04:26:45;;;;;;;8.02;2.25;;;;;;;-6.71;55.38;103881.28;4967521;28;20520;-69
2024/01/09 04:29:10;;;;;;;6.43;2.75;;;;;;;-6.63;55.51;103882.78;4985172;28;20065;-70
2024/01/09 04:31:36;;;;;;;6.88;2.40;;;;;;;-6.64;55.39;103881.03;4958053;28;20034;-69
2024/01/09 04:34:02;;;;;;;3.05;1.55;;;;;;;-6.66;55.31;103882.56;4952154;28;20086;-70
2024/01/09 04:36:27;;;;;;;3.35;1.55;;;;;;;-6.70;55.34;103870.34;4959082;28;20074;-69
2024/01/09 04:38:53;;;;;;;8.50;1.98;;;;;;;-6.74;55.56;103873.41;4953696;28;20027;-65
2024/01/09 04:41:18;;;;;;;4.85;2.45;;;;;;;-6.80;55.67;103876.34;4960263;28;20368;-66
2024/01/09 04:43:47;;;;;;;9.60;3.55;;;;;;;-6.75;55.99;103875.06;4952053;28;20042;-70
2024/01/09 04:46:13;;;;;;;6.22;2.70;;;;;;;-6.77;55.89;103878.28;4949967;28;20049;-69
2024/01/09 04:48:38;;;;;;;5.07;2.58;;;;;;;-6.73;55.93;103876.09;4975935;28;20038;-65
2024/01/09 04:51:05;;;;;;;6.90;3.63;;;;;;;-6.78;56.20;103876.47;4952641;28;20034;-68
2024/01/09 04:53:31;;;;;;;7.97;2.35;;;;;;;-6.63;55.96;103875.16;4958040;28;20158;-71
2024/01/09 04:55:56;;;;;;;5.13;2.20;;;;;;;-6.58;54.98;103876.41;4948944;28;20046;-71
2024/01/09 04:58:22;;;;;;;6.00;2.67;;;;;;;-6.71;55.05;103873.66;4969230;28;20061;-70
2024/01/09 05:00:47;;;;;;;10.45;3.65;;;;;;;-6.65;55.15;103886.88;4960696;28;20298;-70
2024/01/09 05:03:13;;;;;;;6.03;2.90;;;;;;;-6.77;55.46;103883.34;4961488;28;21891;-70
2024/01/09 05:05:39;;;;;;;11.45;2.95;;;;;;;-6.82;55.94;103878.78;4976627;28;20171;-71
2024/01/09 05:08:04;;;;;;;8.00;2.50;;;;;;;-6.75;55.54;103881.81;4952471;28;20030;-71
2024/01/09 05:10:31;;;;;;;6.25;1.95;;;;;;;-6.69;55.71;103882.28;4974419;28;20055;-70
2024/01/09 05:12:57;;;;;;;5.53;2.05;;;;;;;-6.69;55.50;103879.75;4958730;28;20037;-69
2024/01/09 05:15:22;;;;;;;4.22;1.77;;;;;;;-6.74;55.62;103869.22;4949667;28;20054;-70
2024/01/09 05:17:48;;;;;;;7.10;2.35;;;;;;;-6.73;55.33;103872.63;4958422;28;20039;-71
2024/01/09 05:20:15;;;;;;;8.23;3.17;;;;;;;-6.84;55.92;103872.69;4953900;28;21238;-70
2024/01/09 05:22:40;;;;;;;7.68;3.25;;;;;;;-6.75;55.49;103871.66;4958979;28;20049;-68
2024/01/09 05:25:09;;;;;;;6.78;2.22;;;;;;;-6.77;55.50;103874.06;4952128;28;20070;-68
2024/01/09 05:27:34;;;;;;;7.97;2.40;;;;;;;-6.82;56.01;103872.81;4958500;28;20073;-68
2024/01/09 05:30:00;;;;;;;4.63;2.83;;;;;;;-6.81;56.16;103872.91;4950695;28;20597;-68
2024/01/09 05:32:26;;;;;;;5.32;2.60;;;;;;;-6.77;56.16;103868.09;4974490;28;20537;-70
2024/01/09 05:34:52;;;;;;;9.55;3.83;;;;;;;-6.71;55.92;103868.56;4951923;28;20405;-70
2024/01/09 05:37:17;;;;;;;8.80;3.45;;;;;;;-6.74;56.01;103873.41;4948202;28;20561;-70
2024/01/09 05:39:44;;;;;;;8.00;3.33;;;;;;;-6.81;55.71;103870.38;4951538;28;20035;-70
2024/01/09 05:42:10;;;;;;;9.02;2.58;;;;;;;-6.79;55.96;103873.06;4946130;28;20045;-68
2024/01/09 05:44:35;;;;;;;6.90;2.72;;;;;;;-6.80;55.78;103876.34;4936608;28;20038;-68
2024/01/09 05:47:01;;;;;;;8.73;2.97;;;;;;;-6.90;56.01;103876.38;4928027;28;20753;-68
2024/01/09 05:49:26;;;;;;;5.20;2.78;;;;;;;-6.87;56.37;103877.50;4956762;28;20066;-70
2024/01/09 05:51:52;;;;;;;8.68;3.30;;;;;;;-6.85;56.02;103875.97;4931701;28;20066;-68
2024/01/09 05:54:17;;;;;;;7.72;3.35;;;;;;;-6.78;55.66;103876.47;4931899;28;21156;-71
2024/01/09 05:56:43;;;;;;;7.50;2.67;;;;;;;-6.95;56.22;103877.69;4950812;28;20595;-70
2024/01/09 05:59:08;;;;;;;5.82;2.28;;;;;;;-6.89;55.97;103884.16;4951192;28;20584;-70
2024/01/09 06:01:34;;;;;;;6.95;3.15;;;;;;;-6.93;56.10;103871.94;4960588;28;20549;-74
2024/01/09 06:04:00;;;;;;;9.93;3.70;;;;;;;-6.95;55.94;103876.03;4958771;28;20677;-74
2024/01/09 06:06:25;;;;;;;7.15;3.22;;;;;;;-6.97;56.26;103875.00;4966166;28;20037;-73
2024/01/09 06:08:51;;;;;;;9.27;4.15;;;;;;;-6.92;55.84;103872.84;4956901;28;20042;-69
2024/01/09 06:11:16;;;;;;;11.35;3.45;;;;;;;-6.89;55.63;103871.44;4961029;28;20554;-69
2024/01/09 06:13:42;;;;;;;7.10;3.42;;;;;;;-6.92;55.86;103870.28;4988639;28;20041;-70
2024/01/09 06:16:07;;;;;;;9.35;3.95;;;;;;;-7.10;56.52;103868.03;4952351;28;20126;-69
2024/01/09 06:18:34;;;;;;;12.88;4.28;;;;;;;-6.99;56.20;103861.28;4955090;28;20027;-71
2024/01/09 06:20:59;;;;;;;8.93;4.32;;;;;;;-6.87;55.69;103858.81;4952551;28;20773;-69
2024/01/09 06:23:25;;;;;;;8.75;4.13;;;;;;;-6.86;55.46;103861.50;4941629;28;20415;-70
2024/01/09 06:25:50;;;;;;;6.63;2.55;;;;;;;-6.93;55.82;103871.03;4957018;28;20035;-69
2024/01/09 06:28:16;;;;;;;7.95;3.42;;;;;;;-6.93;55.35;103873.59;4951378;28;20101;-72
2024/01/09 06:30:41;;;;;;;7.97;2.83;;;;;;;-6.96;55.03;103874.22;4962779;28;20039;-71
2024/01/09 06:33:07;;;;;;;11.52;3.00;;;;;;;-7.01;55.25;103883.16;4954426;28;20406;-71
2024/01/09 06:35:33;;;;;;;7.63;2.80;;;;;;;-7.04;55.79;103880.38;4989409;28;20481;-66
2024/01/09 06:37:58;;;;;;;11.20;3.65;;;;;;;-7.07;56.01;103878.47;4960048;28;20034;-71
2024/01/09 06:40:24;;;;;;;9.00;4.68;;;;;;;-6.92;55.78;103878.81;4952308;28;20230;-70
2024/01/09 06:42:51;;;;;;;8.15;3.38;;;;;;;-6.87;55.33;103874.09;4960357;28;20089;-68
2024/01/09 06:45:17;;;;;;;8.95;3.10;;;;;;;-6.90;55.17;103882.34;4951884;28;20400;-65
2024/01/09 06:47:43;;;;;;;12.70;3.60;;;;;;;-7.05;55.52;103883.66;4960909;28;20633;-70
2024/01/09 06:50:09;;;;;;;10.02;3.28;;;;;;;-7.05;55.75;103881.13;4951648;28;20047;-67
2024/01/09 06:52:34;;;;;;;7.75;2.58;;;;;;;-7.01;55.47;103889.13;4960943;28;20027;-70
2024/01/09 06:55:00;;;;;;;7.00;2.85;;;;;;;-6.94;55.71;103895.59;4960552;28;20053;-70
2024/01/09 06:57:26;;;;;;;7.15;3.60;;;;;;;-6.97;55.50;103890.25;4953932;28;20691;-69
2024/01/09 06:59:51;;;;;;;7.13;3.20;;;;;;;-6.97;55.10;103894.47;4965890;28;20046;-67
2024/01/09 07:02:17;;;;;;;12.57;3.83;;;;;;;-7.03;55.50;103889.75;4951605;28;20081;-67
2024/01/09 07:04:43;;;;;;;10.57;3.40;;;;;;;-6.92;55.04;103891.50;4959850;28;20080;-69
2024/01/09 07:07:09;;;;;;;5.78;2.63;;;;;;;-6.99;55.27;103901.09;4983805;28;20034;-68
2024/01/09 07:09:34;;;;;;;9.43;2.90;;;;;;;-6.97;54.94;103895.34;4970441;28;20047;-68
2024/01/09 07:12:00;;;;;;;9.13;3.63;;;;;;;-6.99;54.68;103896.88;4938760;28;20576;-68
2024/01/09 07:14:25;;;;;;;17.83;4.20;;;;;;;-7.05;54.95;103911.63;4935401;28;20065;-64
2024/01/09 07:16:51;;;;;;;13.20;3.75;;;;;;;-7.01;54.79;103909.47;4940822;28;20721;-65
2024/01/09 07:19:17;;;;;;;10.65;3.92;;;;;;;-7.06;54.59;103909.88;4936089;28;20269;-66
2024/01/09 07:21:42;;;;;;;8.73;3.92;;;;;;;-7.14;54.50;103905.78;4951834;28;20023;-63
2024/01/09 07:24:08;;;;;;;16.23;4.38;;;;;;;-7.25;54.48;103907.44;4953224;28;20046;-67
2024/01/09 07:26:41;;;;;;;11.65;4.63;;;;;;;-7.30;54.66;103914.69;4951027;28;20543;-64
2024/01/09 07:29:07;;;;;;;16.27;4.80;;;;;;;-7.39;54.54;103921.56;4957270;28;20099;-66
2024/01/09 07:31:32;;;;;;;11.85;4.18;;;;;;;-7.47;54.57;103920.03;4952344;28;20525;-66
2024/01/09 07:33:58;;;;;;;9.77;3.85;;;;;;;-7.54;54.74;103923.72;4957868;28;20246;-68
2024/01/09 07:36:23;;;;;;;11.73;3.83;;;;;;;-7.55;54.80;103931.22;4954340;28;20030;-66
2024/01/09 07:38:49;;;;;;;8.48;3.72;;;;;;;-7.53;54.70;103920.41;4955236;28;20155;-68
2024/01/09 07:41:17;;;;;;;7.45;3.17;;;;;;;-7.55;54.61;103931.22;4957675;28;20026;-69
2024/01/09 07:43:43;;;;;;;8.68;3.90;;;;;;;-7.46;54.71;103926.91;4949789;28;20039;-68
2024/01/09 07:46:10;;;;;;;8.80;3.58;;;;;;;-7.48;54.75;103943.66;4954462;28;20065;-67
2024/01/09 07:48:36;;;;;;;8.85;4.07;;;;;;;-7.52;54.80;103942.50;4951158;28;21068;-68
2024/01/09 07:51:02;;;;;;;6.60;3.10;;;;;;;-7.48;54.91;103936.06;4963511;28;20047;-65
2024/01/09 07:53:28;;;;;;;8.98;3.70;;;;;;;-7.49;54.75;103929.16;4957533;28;20552;-65
2024/01/09 07:55:53;;;;;;;9.45;4.05;;;;;;;-7.54;55.07;103925.38;4958014;28;20031;-64
2024/01/09 07:58:19;;;;;;;11.60;4.30;;;;;;;-7.56;54.99;103926.88;4936047;28;20082;-65
2024/01/09 08:00:45;;;;;;;8.35;3.40;;;;;;;-7.45;55.11;103928.66;4958255;28;20156;-71
2024/01/09 08:03:13;;;;;;;9.15;3.95;;;;;;;-7.41;55.17;103925.63;4960979;28;20616;-68
2024/01/09 08:05:39;;;;;;;9.98;3.00;;;;;;;-7.41;55.32;103918.00;4956362;28;20050;-71
2024/01/09 08:08:06;;;;;;;6.25;2.90;;;;;;;-7.28;55.16;103918.25;4966747;28;20114;-71
2024/01/09 08:10:31;;;;;;;9.48;4.47;;;;;;;-7.16;55.89;103920.91;4953981;28;20039;-65
2024/01/09 08:12:57;;;;;;;9.13;4.00;;;;;;;-7.00;55.16;103923.09;4974153;28;20425;-66
2024/01/09 08:15:22;;;;;;;6.60;3.50;;;;;;;-7.10;55.02;103923.97;4949723;28;20122;-66
2024/01/09 08:17:48;;;;;;;11.40;4.93;;;;;;;-7.05;55.11;103927.75;4966773;28;20026;-67
2024/01/09 08:20:14;;;;;;;8.75;4.53;;;;;;;-6.84;55.09;103938.81;4956128;28;20467;-70
2024/01/09 08:22:40;;;;;;;15.70;5.47;;;;;;;-6.67;54.97;103927.44;4942590;28;20061;-71
2024/01/09 08:25:06;;;;;;;10.38;4.03;;;;;;;-6.34;54.74;103933.44;4957760;28;20038;-67
2024/01/09 08:27:32;;;;;;;6.30;4.28;;;;;;;-5.68;54.34;103936.03;4953915;28;20394;-68
2024/01/09 08:29:58;;;;;;;12.30;4.28;;;;;;;-5.39;52.14;103929.72;4956968;28;20038;-67
2024/01/09 08:32:24;;;;;;;4.32;2.95;;;;;;;-5.45;51.73;103929.25;4969703;28;20053;-66
2024/01/09 08:34:49;;;;;;;8.77;3.95;;;;;;;-5.57;51.33;103925.00;4944385;28;20183;-66
2024/01/09 08:37:15;;;;;;;11.82;4.55;;;;;;;-5.70;51.31;103932.47;4945546;28;20053;-65
2024/01/09 08:39:41;;;;;;;8.88;4.28;;;;;;;-5.92;51.65;103939.25;4943453;28;20047;-67
2024/01/09 08:42:07;;;;;;;6.28;3.03;;;;;;;-6.00;52.38;103934.41;4941188;28;20034;-66
2024/01/09 08:44:33;;;;;;;8.68;3.00;;;;;;;-5.96;51.83;103938.97;4967088;28;20059;-69
2024/01/09 08:46:58;;;;;;;7.80;3.95;;;;;;;-5.93;52.35;103937.44;4955914;28;20030;-69
2024/01/09 08:49:24;;;;;;;10.80;2.60;;;;;;;-5.93;51.84;103940.00;4951018;28;20616;-68
2024/01/09 08:51:49;;;;;;;7.78;3.83;;;;;;;-5.90;51.75;103947.91;4957664;28;20060;-68
2024/01/09 08:54:15;;;;;;;10.77;2.47;;;;;;;-5.87;51.83;103943.91;4955632;28;20034;-66
2024/01/09 08:56:42;;;;;;;9.25;4.05;;;;;;;-5.72;52.06;103949.31;4952422;28;20090;-67
2024/01/09 08:59:09;;;;;;;9.55;4.78;;;;;;;-5.52;51.77;103939.75;4956595;28;20077;-68
2024/01/09 09:01:37;;;;;;;7.10;3.25;;;;;;;-4.90;50.78;103933.34;4953984;28;20030;-68
2024/01/09 09:04:03;;;;;;;6.18;3.53;;;;;;;-4.09;48.99;103925.50;4956029;28;20259;-67
2024/01/09 09:06:29;;;;;;;6.85;3.33;;;;;;;-3.26;48.14;103920.88;4951888;28;20045;-67
2024/01/09 09:08:55;;;;;;;5.95;2.78;;;;;;;-2.95;44.94;103918.66;4954243;28;20086;-66
2024/01/09 09:11:20;;;;;;;9.55;2.53;;;;;;;-2.55;44.41;103917.78;4955267;28;20040;-67
2024/01/09 09:13:46;;;;;;;8.70;2.83;;;;;;;-2.52;43.62;103920.53;4960515;28;20106;-65
2024/01/09 09:16:12;;;;;;;7.93;3.45;;;;;;;-2.73;43.59;103928.63;4957964;28;20049;-66
2024/01/09 09:18:38;;;;;;;5.03;2.05;;;;;;;-2.72;44.06;103929.50;4950108;28;20034;-65
2024/01/09 09:21:04;;;;;;;6.80;2.75;;;;;;;-2.71;44.02;103934.75;4955869;28;20050;-66
2024/01/09 09:23:30;;;;;;;5.25;2.22;;;;;;;-2.55;44.29;103935.72;4957626;28;20652;-65
2024/01/09 09:25:56;;;;;;;4.85;2.40;;;;;;;-2.52;43.53;103933.34;4953795;28;20045;-65
2024/01/09 09:28:22;;;;;;;4.50;2.30;;;;;;;-2.65;43.53;103934.22;4955408;28;20043;-65
2024/01/09 09:30:48;;;;;;;4.85;2.05;;;;;;;-2.58;43.20;103936.41;4955284;28;20173;-66
2024/01/09 09:33:13;;;;;;;6.75;2.53;;;;;;;-2.64;43.77;103936.91;4956183;28;20498;-66
2024/01/09 09:35:39;;;;;;;4.28;2.22;;;;;;;-2.69;43.67;103930.59;4947918;28;20050;-66
2024/01/09 09:38:05;;;;;;;9.48;2.65;;;;;;;-2.59;44.27;103929.50;4954252;28;20037;-65
2024/01/09 09:40:30;;;;;;;4.05;2.30;;;;;;;-2.63;43.43;103928.41;4949164;28;20038;-65
2024/01/09 09:43:00;;;;;;;4.97;1.92;;;;;;;-2.32;44.31;103934.59;4956709;28;20053;-65
2024/01/09 09:45:29;;;;;;;3.72;1.38;;;;;;;-2.23;43.53;103938.63;4948394;28;20042;-64
2024/01/09 09:47:55;;;;;;;3.20;1.33;;;;;;;-2.05;43.24;103935.44;4945510;28;20035;-64
2024/01/09 09:50:21;;;;;;;6.25;2.08;;;;;;;-1.89;43.08;103938.16;4953583;28;20034;-66
2024/01/09 09:52:47;;;;;;;4.95;2.22;;;;;;;-1.69;43.01;103936.78;4948213;28;21811;-66
2024/01/09 09:55:13;;;;;;;5.43;1.60;;;;;;;-1.32;41.71;103930.41;4951772;28;20045;-66
2024/01/09 09:57:39;;;;;;;7.05;1.40;;;;;;;-1.34;41.44;103934.53;4948764;28;20030;-66
2024/01/09 10:00:06;;;;;;;3.53;1.88;;;;;;;-1.17;41.10;103933.84;4956581;28;20057;-66
2024/01/09 10:02:33;;;;;;;7.63;2.47;;;;;;;-0.99;40.59;103936.63;4949998;28;20045;-65
2024/01/09 10:05:12;;;;;;;4.22;1.80;;;;;;;-1.11;41.59;103938.44;4984857;28;20047;-66
2024/01/09 10:07:39;;;;;;;4.72;1.35;;;;;;;-1.17;41.77;103931.28;4965654;28;20041;-66
2024/01/09 10:10:07;;;;;;;6.07;1.23;;;;;;;-1.27;41.84;103926.41;4956765;28;20065;-66
2024/01/09 10:12:33;;;;;;;3.17;1.63;;;;;;;-1.36;41.65;103925.88;4951921;28;20114;-66
2024/01/09 10:15:08;;;;;;;3.78;1.70;;;;;;;-1.49;42.25;103927.69;4956325;28;20149;-65
2024/01/09 10:17:41;;;;;;;5.20;1.63;;;;;;;-1.46;42.44;103930.47;4950893;28;20038;-67
2024/01/09 10:20:09;;;;;;;4.13;0.93;;;;;;;-1.31;42.34;103925.31;4955398;28;20129;-65
2024/01/09 10:22:35;;;;;;;3.53;1.38;;;;;;;-1.15;41.12;103927.13;4950634;28;20114;-66
2024/01/09 10:25:09;;;;;;;6.30;1.63;;;;;;;-1.03;42.18;103921.84;4953298;28;20110;-65
2024/01/09 10:27:36;;;;;;;7.35;1.52;;;;;;;-1.15;41.70;103918.53;4953986;28;20687;-66
2024/01/09 10:30:04;;;;;;;5.13;1.33;;;;;;;-1.07;42.08;103914.72;4954310;28;20050;-66
2024/01/09 10:32:32;;;;;;;7.28;2.38;;;;;;;-1.24;41.78;103913.75;4947163;28;20667;-66
2024/01/09 10:34:59;;;;;;;4.60;1.40;;;;;;;-0.92;41.16;103917.31;4952647;28;20078;-65
2024/01/09 10:37:25;;;;;;;3.88;1.50;;;;;;;-1.13;41.91;103916.94;4985939;28;20522;-66
2024/01/09 10:39:51;;;;;;;2.63;1.65;;;;;;;-0.95;41.58;103920.59;4948014;28;20060;-65
2024/01/09 10:42:17;;;;;;;4.15;1.98;;;;;;;-1.03;42.17;103912.44;4952271;28;20142;-65
2024/01/09 10:44:46;;;;;;;4.40;1.42;;;;;;;-1.12;41.88;103914.47;4977689;28;20047;-66
2024/01/09 10:47:15;;;;;;;2.60;1.00;;;;;;;-0.94;41.90;103916.34;4956401;28;20038;-66
2024/01/09 10:49:42;;;;;;;4.13;1.42;;;;;;;-1.26;42.05;103905.97;4966170;28;20058;-66
2024/01/09 10:52:12;;;;;;;1.90;0.60;;;;;;;-1.15;41.56;103906.59;4986317;28;20520;-67
2024/01/09 10:54:40;;;;;;;3.10;1.35;;;;;;;-1.20;41.69;103911.47;4947589;28;20035;-65
2024/01/09 10:57:07;;;;;;;2.03;0.80;;;;;;;-1.69;42.67;103916.25;4954012;28;20847;-67
2024/01/09 10:59:34;;;;;;;5.65;1.50;;;;;;;-1.61;42.96;103912.47;4946912;28;20050;-66
2024/01/09 11:02:00;;;;;;;2.83;0.82;;;;;;;-1.76;43.06;103909.00;4954688;28;20038;-67
2024/01/09 11:04:25;;;;;;;3.80;0.90;;;;;;;-1.64;42.75;103909.75;4953099;28;20417;-66
2024/01/09 11:06:52;;;;;;;3.38;1.05;;;;;;;-1.57;43.18;103898.16;4963128;28;21286;-66
2024/01/09 11:09:20;;;;;;;3.05;1.00;;;;;;;-1.62;43.35;103904.69;4951831;28;20099;-65
2024/01/09 11:11:47;;;;;;;3.58;0.90;;;;;;;-1.61;43.66;103903.91;4952246;28;20065;-66
2024/01/09 11:14:14;;;;;;;1.85;0.75;;;;;;;-1.59;43.84;103897.19;4985949;28;20100;-66
2024/01/09 11:16:43;;;;;;;1.67;0.77;;;;;;;-1.80;44.12;103887.44;4943915;28;20031;-66
2024/01/09 11:19:13;;;;;;;1.98;0.40;;;;;;;-1.72;43.78;103899.81;4960710;28;20046;-66